Terminal Aerodrome Forecast
Issued by NWS Twin Cities, MN

Home | Current Version | Previous Version | Text Only | Print | Product List | Glossary On
Versions: 1 2 3 4 5 6 7 8 9 10 11 12 13 14 15 16 17 18 19 20 21 22 23 24
928
FTUS43 KMPX 030853 AAA
TAFMSP
TAF AMD
KMSP 030853Z 0309/0412 25007KT P6SM SCT250
     FM031600 27013G20KT P6SM SCT120 BKN250
     FM032100 31018G28KT 6SM -SHRA BR SCT070 BKN100
     FM040100 31010KT P6SM SKC=

USA.gov is the U.S. government's official web portal to all federal, state and local government web resources and services.